大分空港の過去48時間の天気

大分空港 (Oita)

現在時刻: 10/20 03:38 JST (10/19 18:38 UTC) 以下の時間は現地時間です。

過去48時間のMETAR気象情報
時間 風向 風速(m/s) 視程 気温(℃) 湿度(%) 気圧(hPa) 天気現象
19 22:00 北西 5 10km以上 17 77 1020
19 21:00 北西 3 10km以上 17 77 1020
19 20:00 北西 4 10km以上 18 73 1019
19 19:00 北西 5 10km以上 18 73 1019
19 18:00 北西 5 10km以上 18 68 1018
19 17:00 北西 5 10km以上 19 68 1017
19 16:00 西北西 5 10km以上 20 64 1017
19 15:00 北西 6 10km以上 21 56 1016
19 14:26 北西 8 10km以上 22 53 1016
19 14:00 北西 7 10km以上 22 57 1016
19 13:00 西北西 5 10km以上 21 60 1017
19 12:34 西 5 10km以上 21 56 1017
19 12:00 北西 5 10km以上 21 56 1018
19 11:00 西北西 7 10km以上 20 64 1018
19 10:00 西北西 6 10km以上 19 64 1018
19 09:00 南西 2 10km以上 18 73 1018
19 08:00 南西 2 10km以上 16 82 1018
19 07:00 西 3 10km以上 16 77 1018
18 22:00 不定 1 10km以上 17 83 1016
18 21:00 西 3 10km以上 17 83 1016
18 20:00 西 3 10km以上 17 77 1015
18 19:00 西南西 2 10km以上 18 73 1015
18 18:00 西北西 2 10km以上 19 68 1015
18 17:00 北北西 3 10km以上 20 60 1014
18 16:00 5 10km以上 22 53 1014
18 15:00 北北東 6 10km以上 22 53 1013
18 14:00 北北東 5 10km以上 22 57 1013
18 13:00 北北東 6 10km以上 22 60 1014
18 12:00 北北東 6 10km以上 21 64 1015
18 11:00 5 10km以上 22 57 1015
18 10:00 北北西 3 10km以上 21 60 1015
18 09:00 不定 2 10km以上 21 60 1015
18 08:00 西 3 10km以上 18 77 1015
18 07:00 西 3 10km以上 15 88 1015
RJFO 191300Z 32009KT 9999 FEW025 SCT070 17/13 Q1020
RJFO 191200Z 32005KT 260V340 9999 FEW025 BKN070 17/13 Q1020
RJFO 191100Z 32007KT 9999 FEW025 BKN060 18/13 Q1019
RJFO 191000Z 31009KT 9999 FEW025 SCT060 18/13 Q1019
RJFO 190900Z 31009KT 9999 FEW025 SCT/// 18/12 Q1018
RJFO 190800Z 32009KT 9999 FEW025 SCT/// 19/13 Q1017
RJFO 190700Z 30010KT 270V340 9999 FEW020 SCT/// 20/13 Q1017
RJFO 190600Z 31011G21KT 280V340 9999 FEW020 SCT040 BKN060 21/12 Q1016
RJFO 190526Z 31016G26KT 270V340 9999 FEW020 SCT040 22/12 Q1016 RMK 1CU020 4CU040 A3002
RJFO 190500Z 31013KT 270V340 9999 FEW020 SCT050 22/13 Q1016
RJFO 190400Z 30010KT 270V340 9999 FEW020 SCT035 BKN050 21/13 Q1017
RJFO 190334Z 26010KT 230V300 9999 FEW020 BKN035 21/12 Q1017 RMK 1CU020 5CU035 A3005
RJFO 190300Z 32010KT 280V010 9999 FEW020 SCT040 21/12 Q1018
RJFO 190200Z 30013KT 270V330 9999 FEW030 BKN050 20/13 Q1018
RJFO 190100Z 29011KT 260V320 9999 FEW030 BKN050 19/12 Q1018
RJFO 190000Z 23004KT 9999 FEW025 18/13 Q1018
RJFO 182300Z 22004KT 9999 FEW025 SCT070 16/13 Q1018
RJFO 182200Z 28006KT 250V310 9999 FEW025 SCT050 BKN070 16/12 Q1018
RJFO 181300Z VRB02KT CAVOK 17/14 Q1016
RJFO 181200Z 26006KT 9999 FEW030 SCT/// 17/14 Q1016
RJFO 181100Z 28005KT 9999 FEW030 SCT/// 17/13 Q1015
RJFO 181000Z 25004KT 9999 FEW030 SCT070 18/13 Q1015
RJFO 180900Z 29004KT 260V320 9999 FEW030 SCT060 BKN070 19/13 Q1015
RJFO 180800Z 33006KT 9999 FEW030 SCT060 20/12 Q1014
RJFO 180700Z 36010KT 9999 FEW030 22/12 Q1014
RJFO 180600Z 02011KT 9999 FEW030 22/12 Q1013
RJFO 180500Z 02009KT 9999 FEW030 22/13 Q1013
RJFO 180400Z 02012KT 9999 FEW025 BKN035 22/14 Q1014
RJFO 180300Z 03012KT 9999 FEW025 SCT035 21/14 Q1015
RJFO 180200Z 01009KT 9999 FEW030 SCT/// 22/13 Q1015
RJFO 180100Z 33006KT 9999 FEW030 SCT/// 21/13 Q1015
RJFO 180000Z VRB04KT 9999 FEW030 BKN/// 21/13 Q1015
RJFO 172300Z 26005KT 200V290 9999 FEW030 BKN/// 18/14 Q1015
RJFO 172200Z 26006KT 9999 FEW030 BKN/// 15/13 Q1015